Tennant Creek Airport
YTNK : rendu visible

Aérodrome :











RETROUVEZ-NOUS SUR...

 
LOGIN :

S'inscrire | Disclaimer

   EN    FR    IT 

 









Légende :    VFR   VFR Marginal   IFR   IFR Intensif   IFR Très Intensif
Visi : 
Plafond : 
>= 8 km
>= 3000ft
5 à 8 km
1000 à 3000 ft
1500m à 5 km
500 à 1000 ft
800 à 1500m
200 à 500 ft
< 800m
< 200 ft
Symboles :   Orages  Brouillard  Fortes neiges  Fortes précipitations  Vent > 20 kt






- Altitude de l'aérodrome : 1236 ft
- Code IATA : TCA


YTNK - Tennant Creek

DERNIER METAR :
  • 251600Z AUTO 11018KT 9999 // OVC030 28/21 Q1006

METARs EXPIRÉS :
  • 251500Z AUTO 10018KT 9999 // SCT032 28/21 Q1006
  • 251400Z AUTO 10017KT 9999 // NCD 28/21 Q1007

TAF AMD TAF YTNK
Valide du 25 à 14h jusqu'au 26 à 02h UTC


251206Z 2514/2602 10018G28KT 8000 -RA SCT012 SCT030



MET'MAP, la Météo Aéronautique d'un coup d'oeil ! - Copyright ORBIFLY Décembre 2007 - Disclaimer

ORBIFLY MET'MAP TEAM :

Programmation & Développement : Alexandra Zaïnal
Sur une idée originale de : Baudouin d'Aumeries
Assistance à la programmation : Marc-Olivier Méhu
Soutien technique & logistique : Manuel Goepfert

Contact : metmap@orbifly.com




SOURCES & CREDITS :

   NOAA       Earth
Advisory